Time,TemperatureF,DewpointF,PressureIn,WindDirection,WindDirectionDegrees,WindSpeedMPH,WindSpeedGustMPH,Humidity,HourlyPrecipIn,Conditions,Clouds,dailyrainin,SoftwareType,DateUTC
2013-10-23 00:00:00,39.4,36.1,30.05,NE,34,4.0,4.0,88,0.00,,,0.01,Wunderground v.1.15,2013-10-23 05:00:00,
2013-10-23 00:06:00,39.4,36.1,30.05,ENE,60,4.0,10.0,88,0.00,,,0.00,Wunderground v.1.15,2013-10-23 05:06:00,
2013-10-23 00:11:00,39.3,35.8,30.05,NE,53,5.0,7.0,87,0.00,,,0.00,Wunderground v.1.15,2013-10-23 05:11:00,
2013-10-23 00:17:00,39.3,35.8,30.04,ENE,61,5.0,7.0,87,0.00,,,0.00,Wunderground v.1.15,2013-10-23 05:17:00,
2013-10-23 00:22:00,39.3,35.8,30.05,ENE,59,4.0,5.0,87,0.00,,,0.00,Wunderground v.1.15,2013-10-23 05:22:00,
2013-10-23 00:28:00,39.3,35.8,30.05,NE,49,3.0,6.0,87,0.00,,,0.00,Wunderground v.1.15,2013-10-23 05:28:00,
2013-10-23 00:33:00,39.2,35.7,30.04,ENE,58,3.0,10.0,87,0.00,,,0.00,Wunderground v.1.15,2013-10-23 05:33:00,
2013-10-23 00:39:00,39.2,35.7,30.04,NE,44,3.0,10.0,87,0.00,,,0.00,Wunderground v.1.15,2013-10-23 05:39:00,
2013-10-23 00:44:00,39.0,35.5,30.04,NE,35,2.0,10.0,87,0.00,,,0.00,Wunderground v.1.15,2013-10-23 05:44:00,
2013-10-23 00:50:00,38.8,35.3,30.04,NE,36,1.0,1.0,87,0.00,,,0.00,Wunderground v.1.15,2013-10-23 05:50:00,
2013-10-23 00:55:00,38.6,35.1,30.04,NE,41,1.0,10.0,87,0.00,,,0.00,Wunderground v.1.15,2013-10-23 05:55:00,
2013-10-23 01:01:00,38.2,34.7,30.04,NNE,28,2.0,10.0,87,0.00,,,0.00,Wunderground v.1.15,2013-10-23 06:01:00,
2013-10-23 01:06:00,37.9,34.4,30.04,NNE,25,1.0,10.0,87,0.00,,,0.00,Wunderground v.1.15,2013-10-23 06:06:00,
2013-10-23 01:12:00,37.6,34.1,30.04,NNE,25,0.0,10.0,87,0.00,,,0.00,Wunderground v.1.15,2013-10-23 06:12:00,
2013-10-23 01:17:00,37.4,34.2,30.04,NE,34,0.0,10.0,88,0.00,,,0.00,Wunderground v.1.15,2013-10-23 06:17:00,
2013-10-23 01:23:00,37.2,34.0,30.04,NNW,329,1.0,10.0,88,0.00,,,0.00,Wunderground v.1.15,2013-10-23 06:23:00,
2013-10-23 01:28:00,37.0,33.8,30.04,NNE,18,1.0,10.0,88,0.00,,,0.00,Wunderground v.1.15,2013-10-23 06:28:00,
2013-10-23 01:34:00,36.8,33.6,30.04,North,5,0.0,10.0,88,0.00,,,0.00,Wunderground v.1.15,2013-10-23 06:34:00,
2013-10-23 01:39:00,36.5,33.3,30.04,North,5,0.0,10.0,88,0.00,,,0.00,Wunderground v.1.15,2013-10-23 06:39:00,
2013-10-23 01:45:00,36.3,33.1,30.04,North,5,0.0,10.0,88,0.00,,,0.00,Wunderground v.1.15,2013-10-23 06:45:00,
2013-10-23 01:50:00,36.1,32.9,30.05,North,5,0.0,10.0,88,0.00,,,0.00,Wunderground v.1.15,2013-10-23 06:50:00,
2013-10-23 01:56:00,36.0,33.1,30.05,North,5,1.0,10.0,89,0.00,,,0.00,Wunderground v.1.15,2013-10-23 06:56:00,
2013-10-23 02:02:00,35.8,32.9,30.05,North,5,1.0,10.0,89,0.00,,,0.00,Wunderground v.1.15,2013-10-23 07:02:00,
2013-10-23 02:16:00,35.4,32.5,30.05,North,5,0.0,10.0,89,0.00,,,0.00,Wunderground v.1.15,2013-10-23 07:16:00,
2013-10-23 02:22:00,35.2,32.6,30.05,North,5,0.0,10.0,90,0.00,,,0.00,Wunderground v.1.15,2013-10-23 07:22:00,
2013-10-23 02:28:00,35.1,32.5,30.05,North,5,1.0,10.0,90,0.00,,,0.00,Wunderground v.1.15,2013-10-23 07:28:00,
2013-10-23 02:33:00,35.0,32.4,30.05,North,5,1.0,10.0,90,0.00,,,0.00,Wunderground v.1.15,2013-10-23 07:33:00,
2013-10-23 02:39:00,34.9,32.3,30.05,North,5,0.0,10.0,90,0.00,,,0.00,Wunderground v.1.15,2013-10-23 07:39:00,
2013-10-23 02:44:00,34.9,32.3,30.05,North,5,0.0,10.0,90,0.00,,,0.00,Wunderground v.1.15,2013-10-23 07:44:00,
2013-10-23 02:50:00,35.0,32.6,30.05,North,5,1.0,1.0,91,0.00,,,0.00,Wunderground v.1.15,2013-10-23 07:50:00,
2013-10-23 02:55:00,35.0,32.6,30.05,North,351,1.0,10.0,91,0.00,,,0.00,Wunderground v.1.15,2013-10-23 07:55:00,
2013-10-23 03:01:00,35.1,32.7,30.05,North,350,2.0,2.0,91,0.00,,,0.00,Wunderground v.1.15,2013-10-23 08:01:00,
2013-10-23 03:06:00,35.1,32.7,30.05,NNW,348,1.0,10.0,91,0.00,,,0.00,Wunderground v.1.15,2013-10-23 08:06:00,
2013-10-23 03:12:00,35.2,32.8,30.05,NNW,345,1.0,10.0,91,0.00,,,0.00,Wunderground v.1.15,2013-10-23 08:12:00,
2013-10-23 03:17:00,35.2,32.8,30.05,NNW,345,1.0,10.0,91,0.00,,,0.00,Wunderground v.1.15,2013-10-23 08:17:00,
2013-10-23 03:23:00,35.3,32.9,30.04,South,178,0.0,10.0,91,0.00,,,0.00,Wunderground v.1.15,2013-10-23 08:23:00,
2013-10-23 03:28:00,35.3,32.9,30.04,SE,144,0.0,10.0,91,0.00,,,0.00,Wunderground v.1.15,2013-10-23 08:28:00,
2013-10-23 03:34:00,35.2,32.8,30.04,NE,43,1.0,10.0,91,0.00,,,0.00,Wunderground v.1.15,2013-10-23 08:34:00,
2013-10-23 03:39:00,35.2,32.8,30.04,NE,43,0.0,10.0,91,0.00,,,0.00,Wunderground v.1.15,2013-10-23 08:39:00,
2013-10-23 03:45:00,35.1,32.7,30.04,NE,43,0.0,10.0,91,0.00,,,0.00,Wunderground v.1.15,2013-10-23 08:45:00,
2013-10-23 04:00:00,35.0,32.6,30.04,NE,43,0.0,10.0,91,0.00,,,0.00,Wunderground v.1.15,2013-10-23 09:00:00,
2013-10-23 04:06:00,35.0,32.6,30.04,NE,42,0.0,10.0,91,0.00,,,0.00,Wunderground v.1.15,2013-10-23 09:06:00,
2013-10-23 04:12:00,34.9,32.5,30.04,NE,42,0.0,10.0,91,0.00,,,0.00,Wunderground v.1.15,2013-10-23 09:12:00,
2013-10-23 04:17:00,34.9,32.5,30.04,NW,326,0.0,10.0,91,0.00,,,0.00,Wunderground v.1.15,2013-10-23 09:17:00,
2013-10-23 04:23:00,34.9,32.5,30.04,NW,321,1.0,10.0,91,0.00,,,0.00,Wunderground v.1.15,2013-10-23 09:23:00,
2013-10-23 04:28:00,34.9,32.5,30.05,NW,317,2.0,10.0,91,0.00,,,0.00,Wunderground v.1.15,2013-10-23 09:28:00,
2013-10-23 04:34:00,35.0,32.6,30.05,NW,321,2.0,10.0,91,0.00,,,0.00,Wunderground v.1.15,2013-10-23 09:34:00,
2013-10-23 04:40:00,35.0,32.6,30.05,NW,322,2.0,10.0,91,0.00,,,0.00,Wunderground v.1.15,2013-10-23 09:40:00,
2013-10-23 04:45:00,35.0,32.6,30.06,NW,316,3.0,10.0,91,0.00,,,0.00,Wunderground v.1.15,2013-10-23 09:45:00,
2013-10-23 04:51:00,35.0,32.6,30.06,NW,316,3.0,10.0,91,0.00,,,0.00,Wunderground v.1.15,2013-10-23 09:51:00,
2013-10-23 04:57:00,35.1,32.7,30.06,NW,319,3.0,10.0,91,0.00,,,0.00,Wunderground v.1.15,2013-10-23 09:57:00,
2013-10-23 05:03:00,35.1,32.7,30.06,NW,311,3.0,10.0,91,0.00,,,0.00,Wunderground v.1.15,2013-10-23 10:03:00,
2013-10-23 05:08:00,35.1,32.7,30.06,NW,309,3.0,10.0,91,0.00,,,0.00,Wunderground v.1.15,2013-10-23 10:08:00,
2013-10-23 05:14:00,35.1,32.7,30.06,NW,313,3.0,10.0,91,0.00,,,0.00,Wunderground v.1.15,2013-10-23 10:14:00,
2013-10-23 05:19:00,35.2,32.8,30.06,NW,309,3.0,10.0,91,0.00,,,0.00,Wunderground v.1.15,2013-10-23 10:19:00,
2013-10-23 05:25:00,35.3,32.9,30.06,NW,318,2.0,10.0,91,0.00,,,0.00,Wunderground v.1.15,2013-10-23 10:25:00,
2013-10-23 05:30:00,35.3,32.9,30.06,NW,313,2.0,2.0,91,0.00,,,0.00,Wunderground v.1.15,2013-10-23 10:30:00,
2013-10-23 05:36:00,35.4,33.0,30.06,NW,313,2.0,10.0,91,0.00,,,0.00,Wunderground v.1.15,2013-10-23 10:36:00,
2013-10-23 05:41:00,35.5,33.1,30.06,NW,321,1.0,10.0,91,0.00,,,0.00,Wunderground v.1.15,2013-10-23 10:41:00,
2013-10-23 05:47:00,35.5,32.9,30.06,NW,318,1.0,10.0,90,0.00,,,0.00,Wunderground v.1.15,2013-10-23 10:47:00,
2013-10-23 05:52:00,35.5,32.9,30.07,NW,319,1.0,10.0,90,0.00,,,0.00,Wunderground v.1.15,2013-10-23 10:52:00,
2013-10-23 05:58:00,35.6,33.0,30.07,NW,319,1.0,10.0,90,0.00,,,0.00,Wunderground v.1.15,2013-10-23 10:58:00,
2013-10-23 06:03:00,35.6,33.0,30.07,NW,319,0.0,10.0,90,0.00,,,0.00,Wunderground v.1.15,2013-10-23 11:03:00,
2013-10-23 06:09:00,35.4,32.5,30.07,NW,321,1.0,10.0,89,0.00,,,0.00,Wunderground v.1.15,2013-10-23 11:09:00,
2013-10-23 06:14:00,35.3,32.7,30.08,NW,321,2.0,10.0,90,0.00,,,0.00,Wunderground v.1.15,2013-10-23 11:14:00,
2013-10-23 06:20:00,35.3,32.7,30.08,NW,321,2.0,10.0,90,0.00,,,0.00,Wunderground v.1.15,2013-10-23 11:20:00,
2013-10-23 06:25:00,35.1,32.2,30.08,NW,321,1.0,10.0,89,0.00,,,0.00,Wunderground v.1.15,2013-10-23 11:25:00,
2013-10-23 06:31:00,34.8,31.9,30.09,NW,321,1.0,10.0,89,0.00,,,0.00,Wunderground v.1.15,2013-10-23 11:31:00,
2013-10-23 06:36:00,34.7,32.1,30.09,NW,321,1.0,10.0,90,0.00,,,0.00,Wunderground v.1.15,2013-10-23 11:36:00,
2013-10-23 06:42:00,34.3,31.7,30.09,NW,320,2.0,10.0,90,0.00,,,0.00,Wunderground v.1.15,2013-10-23 11:42:00,
2013-10-23 06:47:00,34.1,31.5,30.09,NW,320,2.0,10.0,90,0.00,,,0.00,Wunderground v.1.15,2013-10-23 11:47:00,
2013-10-23 06:53:00,33.7,31.1,30.09,NW,319,2.0,10.0,90,0.00,,,0.00,Wunderground v.1.15,2013-10-23 11:53:00,
2013-10-23 06:58:00,33.4,31.1,30.09,NW,319,2.0,10.0,91,0.00,,,0.00,Wunderground v.1.15,2013-10-23 11:58:00,
2013-10-23 07:04:00,33.4,31.1,30.09,NW,319,2.0,10.0,91,0.00,,,0.00,Wunderground v.1.15,2013-10-23 12:04:00,
2013-10-23 07:09:00,33.4,31.1,30.09,NW,319,2.0,10.0,91,0.00,,,0.00,Wunderground v.1.15,2013-10-23 12:09:00,
2013-10-23 07:15:00,33.3,31.2,30.09,NW,319,2.0,10.0,92,0.00,,,0.00,Wunderground v.1.15,2013-10-23 12:15:00,
2013-10-23 07:20:00,33.4,31.3,30.09,NW,319,3.0,10.0,92,0.00,,,0.00,Wunderground v.1.15,2013-10-23 12:20:00,
2013-10-23 07:26:00,33.5,31.4,30.09,NW,319,3.0,10.0,92,0.00,,,0.00,Wunderground v.1.15,2013-10-23 12:26:00,
2013-10-23 07:31:00,33.6,31.5,30.09,NW,312,3.0,5.0,92,0.00,,,0.00,Wunderground v.1.15,2013-10-23 12:31:00,
2013-10-23 07:37:00,33.8,31.7,30.10,NW,310,4.0,10.0,92,0.00,,,0.00,Wunderground v.1.15,2013-10-23 12:37:00,
2013-10-23 07:42:00,34.0,31.9,30.10,NW,312,4.0,10.0,92,0.00,,,0.00,Wunderground v.1.15,2013-10-23 12:42:00,
2013-10-23 07:48:00,34.2,31.8,30.10,NW,316,3.0,10.0,91,0.00,,,0.00,Wunderground v.1.15,2013-10-23 12:48:00,
2013-10-23 07:53:00,34.5,32.1,30.10,NW,322,3.0,10.0,91,0.00,,,0.00,Wunderground v.1.15,2013-10-23 12:53:00,
2013-10-23 07:59:00,34.7,32.1,30.11,NW,320,3.0,10.0,90,0.00,,,0.00,Wunderground v.1.15,2013-10-23 12:59:00,
2013-10-23 08:04:00,34.9,32.0,30.11,NW,312,3.0,10.0,89,0.00,,,0.00,Wunderground v.1.15,2013-10-23 13:04:00,
2013-10-23 08:10:00,35.1,32.2,30.11,NW,314,3.0,3.0,89,0.00,,,0.00,Wunderground v.1.15,2013-10-23 13:10:00,
2013-10-23 08:16:00,35.4,32.2,30.12,NW,320,2.0,10.0,88,0.00,,,0.00,Wunderground v.1.15,2013-10-23 13:16:00,
2013-10-23 08:21:00,35.6,32.1,30.12,NW,321,2.0,10.0,87,0.00,,,0.00,Wunderground v.1.15,2013-10-23 13:21:00,
2013-10-23 08:26:00,35.8,32.0,30.12,NW,306,2.0,10.0,86,0.00,,,0.00,Wunderground v.1.15,2013-10-23 13:26:00,
2013-10-23 08:32:00,36.1,32.0,30.12,NNW,334,1.0,10.0,85,0.00,,,0.00,Wunderground v.1.15,2013-10-23 13:32:00,
2013-10-23 08:38:00,36.3,32.2,30.12,NW,310,1.0,10.0,85,0.00,,,0.00,Wunderground v.1.15,2013-10-23 13:38:00,
2013-10-23 08:43:00,36.6,32.2,30.13,NW,320,1.0,10.0,84,0.00,,,0.00,Wunderground v.1.15,2013-10-23 13:43:00,
2013-10-23 08:49:00,36.8,32.1,30.12,NW,305,1.0,10.0,83,0.00,,,0.00,Wunderground v.1.15,2013-10-23 13:49:00,
2013-10-23 08:54:00,37.0,32.3,30.12,NW,325,1.0,10.0,83,0.00,,,0.00,Wunderground v.1.15,2013-10-23 13:54:00,
2013-10-23 09:00:00,37.3,32.0,30.12,NW,306,2.0,10.0,81,0.00,,,0.00,Wunderground v.1.15,2013-10-23 14:00:00,
2013-10-23 09:05:00,37.4,32.1,30.12,WNW,303,3.0,10.0,81,0.00,,,0.00,Wunderground v.1.15,2013-10-23 14:05:00,
2013-10-23 09:11:00,37.5,31.9,30.13,NNE,28,3.0,10.0,80,0.00,,,0.00,Wunderground v.1.15,2013-10-23 14:11:00,
2013-10-23 09:16:00,37.7,31.8,30.13,NW,325,3.0,10.0,79,0.00,,,0.00,Wunderground v.1.15,2013-10-23 14:16:00,
2013-10-23 09:22:00,37.9,31.7,30.14,East,92,3.0,6.0,78,0.00,,,0.00,Wunderground v.1.15,2013-10-23 14:22:00,
2013-10-23 09:33:00,38.7,32.1,30.13,NNE,13,3.0,10.0,77,0.00,,,0.00,Wunderground v.1.15,2013-10-23 14:33:00,
2013-10-23 09:38:00,39.3,31.7,30.13,NE,51,4.0,10.0,74,0.00,,,0.00,Wunderground v.1.15,2013-10-23 14:38:00,
2013-10-23 09:49:00,40.6,31.9,30.12,NNW,327,3.0,10.0,71,0.00,,,0.00,Wunderground v.1.15,2013-10-23 14:49:00,
2013-10-23 09:55:00,40.8,31.1,30.13,ENE,68,5.0,10.0,68,0.00,,,0.00,Wunderground v.1.15,2013-10-23 14:55:00,
2013-10-23 10:00:00,41.1,31.3,30.13,NE,51,5.0,5.0,68,0.00,,,0.00,Wunderground v.1.15,2013-10-23 15:00:00,
2013-10-23 10:05:00,41.6,31.1,30.13,NNE,32,4.0,10.0,66,0.00,,,0.00,Wunderground v.1.15,2013-10-23 15:05:00,
2013-10-23 10:11:00,42.2,31.3,30.13,ENE,71,3.0,10.0,65,0.00,,,0.00,Wunderground v.1.15,2013-10-23 15:11:00,
2013-10-23 10:17:00,42.5,29.6,30.14,ENE,61,4.0,10.0,60,0.00,,,0.00,Wunderground v.1.15,2013-10-23 15:17:00,
2013-10-23 10:22:00,42.4,28.2,30.13,ENE,72,5.0,10.0,57,0.00,,,0.00,Wunderground v.1.15,2013-10-23 15:22:00,
2013-10-23 10:28:00,42.5,29.6,30.13,NW,311,4.0,10.0,60,0.00,,,0.00,Wunderground v.1.15,2013-10-23 15:28:00,
2013-10-23 10:33:00,42.9,29.5,30.14,ENE,60,4.0,10.0,59,0.00,,,0.00,Wunderground v.1.15,2013-10-23 15:33:00,
2013-10-23 10:39:00,42.9,27.4,30.13,ENE,74,5.0,10.0,54,0.00,,,0.00,Wunderground v.1.15,2013-10-23 15:39:00,
2013-10-23 10:44:00,42.8,27.3,30.13,NE,50,5.0,10.0,54,0.00,,,0.00,Wunderground v.1.15,2013-10-23 15:44:00,
2013-10-23 10:49:00,42.8,27.7,30.13,NNW,327,4.0,10.0,55,0.00,,,0.00,Wunderground v.1.15,2013-10-23 15:49:00,
2013-10-23 10:54:00,43.0,27.5,30.13,NE,53,4.0,10.0,54,0.00,,,0.00,Wunderground v.1.15,2013-10-23 15:54:00,
2013-10-23 11:00:00,43.7,28.6,30.13,NNW,338,4.0,10.0,55,0.00,,,0.00,Wunderground v.1.15,2013-10-23 16:00:00,
2013-10-23 11:05:00,44.0,27.5,30.13,NNE,17,5.0,11.0,52,0.00,,,0.00,Wunderground v.1.15,2013-10-23 16:05:00,
2013-10-23 11:10:00,43.7,27.2,30.13,East,82,7.0,7.0,52,0.00,,,0.00,Wunderground v.1.15,2013-10-23 16:10:00,
2013-10-23 11:20:00,44.8,28.2,30.13,WNW,290,4.0,10.0,52,0.00,,,0.00,Wunderground v.1.15,2013-10-23 16:20:00,
2013-10-23 11:26:00,44.8,27.8,30.13,NW,309,5.0,10.0,51,0.00,,,0.00,Wunderground v.1.15,2013-10-23 16:26:00,
2013-10-23 11:32:00,45.1,28.0,30.13,NW,320,4.0,10.0,51,0.00,,,0.00,Wunderground v.1.15,2013-10-23 16:32:00,
2013-10-23 11:37:00,45.5,27.4,30.13,ENE,65,4.0,10.0,49,0.00,,,0.00,Wunderground v.1.15,2013-10-23 16:37:00,
2013-10-23 11:42:00,44.8,26.8,30.13,NE,51,6.0,13.0,49,0.00,,,0.00,Wunderground v.1.15,2013-10-23 16:42:00,
2013-10-23 11:47:00,44.3,26.8,30.13,NE,44,6.0,13.0,50,0.00,,,0.00,Wunderground v.1.15,2013-10-23 16:47:00,
2013-10-23 11:53:00,44.5,27.0,30.13,East,84,6.0,10.0,50,0.00,,,0.00,Wunderground v.1.15,2013-10-23 16:53:00,
2013-10-23 11:59:00,45.4,27.8,30.12,West,262,5.0,10.0,50,0.00,,,0.00,Wunderground v.1.15,2013-10-23 16:59:00,
2013-10-23 12:04:00,46.0,27.9,30.12,NE,44,4.0,10.0,49,0.00,,,0.00,Wunderground v.1.15,2013-10-23 17:04:00,
2013-10-23 12:10:00,46.6,26.9,30.12,NNE,13,4.0,10.0,46,0.00,,,0.00,Wunderground v.1.15,2013-10-23 17:10:00,
2013-10-23 12:18:00,44.9,26.4,30.12,NE,48,8.0,10.0,48,0.00,,,0.00,Wunderground v.1.15,2013-10-23 17:18:00,
2013-10-23 12:24:00,44.8,26.3,30.12,NE,45,6.0,10.0,48,0.00,,,0.00,Wunderground v.1.15,2013-10-23 17:24:00,
2013-10-23 12:29:00,44.9,26.4,30.12,NNE,30,5.0,10.0,48,0.00,,,0.00,Wunderground v.1.15,2013-10-23 17:29:00,
2013-10-23 12:34:00,44.9,26.4,30.12,NE,44,6.0,10.0,48,0.00,,,0.00,Wunderground v.1.15,2013-10-23 17:34:00,
2013-10-23 12:40:00,44.9,26.4,30.12,East,82,6.0,10.0,48,0.00,,,0.00,Wunderground v.1.15,2013-10-23 17:40:00,
2013-10-23 12:45:00,44.8,26.8,30.12,ENE,68,8.0,10.0,49,0.00,,,0.00,Wunderground v.1.15,2013-10-23 17:45:00,
2013-10-23 12:51:00,44.9,26.4,30.11,ENE,71,7.0,11.0,48,0.00,,,0.00,Wunderground v.1.15,2013-10-23 17:51:00,
2013-10-23 12:56:00,44.8,27.8,30.11,North,350,6.0,11.0,51,0.00,,,0.00,Wunderground v.1.15,2013-10-23 17:56:00,
2013-10-23 13:02:00,44.6,27.6,30.11,ENE,57,5.0,10.0,51,0.00,,,0.00,Wunderground v.1.15,2013-10-23 18:02:00,
2013-10-23 13:07:00,44.7,27.2,30.11,ENE,76,6.0,10.0,50,0.00,,,0.00,Wunderground v.1.15,2013-10-23 18:07:00,
2013-10-23 13:13:00,45.1,28.0,30.11,ENE,61,5.0,10.0,51,0.00,,,0.00,Wunderground v.1.15,2013-10-23 18:13:00,
2013-10-23 13:18:00,45.2,27.6,30.11,NW,315,5.0,10.0,50,0.00,,,0.00,Wunderground v.1.15,2013-10-23 18:18:00,
2013-10-23 13:24:00,45.2,27.6,30.11,ENE,77,5.0,10.0,50,0.00,,,0.00,Wunderground v.1.15,2013-10-23 18:24:00,
2013-10-23 13:29:00,45.0,27.5,30.10,WNW,301,5.0,10.0,50,0.00,,,0.00,Wunderground v.1.15,2013-10-23 18:29:00,
2013-10-23 13:35:00,45.4,27.8,30.10,NNW,327,5.0,10.0,50,0.00,,,0.00,Wunderground v.1.15,2013-10-23 18:35:00,
2013-10-23 13:40:00,45.8,28.2,30.10,WNW,291,5.0,10.0,50,0.00,,,0.00,Wunderground v.1.15,2013-10-23 18:40:00,
2013-10-23 13:46:00,45.4,27.8,30.10,WNW,296,5.0,10.0,50,0.00,,,0.00,Wunderground v.1.15,2013-10-23 18:46:00,
2013-10-23 13:52:00,45.8,28.7,30.10,WNW,296,4.0,10.0,51,0.00,,,0.00,Wunderground v.1.15,2013-10-23 18:52:00,
2013-10-23 13:57:00,45.9,27.8,30.09,NNW,334,5.0,10.0,49,0.00,,,0.00,Wunderground v.1.15,2013-10-23 18:57:00,
2013-10-23 14:02:00,46.1,29.0,30.09,ENE,69,5.0,10.0,51,0.00,,,0.00,Wunderground v.1.15,2013-10-23 19:02:00,
2013-10-23 14:08:00,46.1,28.0,30.09,NNE,17,5.0,10.0,49,0.00,,,0.00,Wunderground v.1.15,2013-10-23 19:08:00,
2013-10-23 14:14:00,46.1,28.5,30.08,NE,49,3.0,10.0,50,0.00,,,0.00,Wunderground v.1.15,2013-10-23 19:14:00,
2013-10-23 14:19:00,46.1,28.0,30.08,NNW,329,3.0,10.0,49,0.00,,,0.00,Wunderground v.1.15,2013-10-23 19:19:00,
2013-10-23 14:25:00,46.0,28.4,30.07,WNW,294,5.0,11.0,50,0.00,,,0.00,Wunderground v.1.15,2013-10-23 19:25:00,
2013-10-23 14:30:00,45.9,28.8,30.07,NW,304,6.0,11.0,51,0.00,,,0.00,Wunderground v.1.15,2013-10-23 19:30:00,
2013-10-23 14:36:00,45.8,28.2,30.08,North,355,5.0,11.0,50,0.00,,,0.00,Wunderground v.1.15,2013-10-23 19:36:00,
2013-10-23 14:41:00,45.6,28.0,30.08,NW,321,4.0,10.0,50,0.00,,,0.00,Wunderground v.1.15,2013-10-23 19:41:00,
2013-10-23 14:47:00,45.2,28.1,30.08,NW,317,4.0,10.0,51,0.00,,,0.00,Wunderground v.1.15,2013-10-23 19:47:00,
2013-10-23 14:52:00,45.0,27.9,30.08,NW,317,4.0,10.0,51,0.00,,,0.00,Wunderground v.1.15,2013-10-23 19:52:00,
2013-10-23 14:58:00,44.9,28.3,30.08,NW,311,5.0,10.0,52,0.00,,,0.00,Wunderground v.1.15,2013-10-23 19:58:00,
2013-10-23 15:03:00,44.8,27.8,30.09,NNW,328,5.0,10.0,51,0.00,,,0.00,Wunderground v.1.15,2013-10-23 20:03:00,
2013-10-23 15:09:00,44.7,29.1,30.09,ENE,70,4.0,10.0,54,0.00,,,0.00,Wunderground v.1.15,2013-10-23 20:09:00,
2013-10-23 15:15:00,44.5,29.3,30.09,West,280,5.0,10.0,55,0.00,,,0.00,Wunderground v.1.15,2013-10-23 20:15:00,
2013-10-23 15:20:00,44.1,29.4,30.09,WNW,303,7.0,7.0,56,0.00,,,0.00,Wunderground v.1.15,2013-10-23 20:20:00,
2013-10-23 15:26:00,43.8,30.4,30.09,NW,315,7.0,10.0,59,0.00,,,0.00,Wunderground v.1.15,2013-10-23 20:26:00,
2013-10-23 15:31:00,43.5,30.9,30.09,NNW,339,6.0,10.0,61,0.00,,,0.00,Wunderground v.1.15,2013-10-23 20:31:00,
2013-10-23 15:37:00,43.3,30.7,30.09,NW,323,4.0,10.0,61,0.00,,,0.00,Wunderground v.1.15,2013-10-23 20:37:00,
2013-10-23 15:42:00,43.1,31.4,30.08,WNW,284,3.0,10.0,63,0.00,,,0.00,Wunderground v.1.15,2013-10-23 20:42:00,
2013-10-23 15:48:00,42.8,31.5,30.08,NW,323,5.0,10.0,64,0.00,,,0.00,Wunderground v.1.15,2013-10-23 20:48:00,
2013-10-23 15:53:00,42.8,31.5,30.08,NW,308,5.0,10.0,64,0.00,,,0.00,Wunderground v.1.15,2013-10-23 20:53:00,
2013-10-23 15:59:00,42.8,31.5,30.08,NNW,344,4.0,10.0,64,0.00,,,0.00,Wunderground v.1.15,2013-10-23 20:59:00,
2013-10-23 16:04:00,42.9,32.3,30.09,NW,313,4.0,10.0,66,0.00,,,0.00,Wunderground v.1.15,2013-10-23 21:04:00,
2013-10-23 16:10:00,42.7,32.1,30.09,NNW,338,4.0,10.0,66,0.00,,,0.00,Wunderground v.1.15,2013-10-23 21:10:00,
2013-10-23 16:15:00,42.4,32.2,30.08,NW,315,4.0,10.0,67,0.00,,,0.00,Wunderground v.1.15,2013-10-23 21:15:00,
2013-10-23 16:21:00,42.1,32.3,30.09,NW,311,4.0,10.0,68,0.00,,,0.00,Wunderground v.1.15,2013-10-23 21:21:00,
2013-10-23 16:27:00,42.0,32.6,30.09,NW,312,3.0,10.0,69,0.00,,,0.00,Wunderground v.1.15,2013-10-23 21:27:00,
2013-10-23 16:32:00,41.9,32.5,30.09,NNE,12,2.0,10.0,69,0.00,,,0.00,Wunderground v.1.15,2013-10-23 21:32:00,
2013-10-23 16:38:00,41.9,32.5,30.09,NNE,17,2.0,10.0,69,0.00,,,0.00,Wunderground v.1.15,2013-10-23 21:38:00,
2013-10-23 16:44:00,41.9,33.2,30.10,NW,314,2.0,10.0,71,0.00,,,0.00,Wunderground v.1.15,2013-10-23 21:44:00,
2013-10-23 16:50:00,41.8,33.1,30.10,NW,325,2.0,2.0,71,0.00,,,0.00,Wunderground v.1.15,2013-10-23 21:50:00,
2013-10-23 16:55:00,41.7,33.0,30.09,NW,317,1.0,10.0,71,0.00,,,0.00,Wunderground v.1.15,2013-10-23 21:55:00,
2013-10-23 17:01:00,41.6,32.9,30.10,WSW,246,2.0,3.0,71,0.00,,,0.00,Wunderground v.1.15,2013-10-23 22:01:00,
2013-10-23 17:08:00,41.6,33.2,30.10,NE,52,2.0,10.0,72,0.00,,,0.00,Wunderground v.1.15,2013-10-23 22:08:00,
2013-10-23 17:14:00,41.5,33.5,30.10,North,349,1.0,10.0,73,0.00,,,0.00,Wunderground v.1.15,2013-10-23 22:14:00,
2013-10-23 17:20:00,41.4,33.7,30.10,WNW,294,2.0,10.0,74,0.00,,,0.00,Wunderground v.1.15,2013-10-23 22:20:00,
2013-10-23 17:25:00,41.3,33.6,30.10,NW,321,3.0,10.0,74,0.00,,,0.00,Wunderground v.1.15,2013-10-23 22:25:00,
2013-10-23 17:31:00,41.2,33.9,30.10,NW,317,3.0,10.0,75,0.00,,,0.00,Wunderground v.1.15,2013-10-23 22:31:00,
2013-10-23 17:36:00,41.1,33.8,30.11,NNW,329,3.0,10.0,75,0.00,,,0.00,Wunderground v.1.15,2013-10-23 22:36:00,
2013-10-23 17:42:00,41.0,34.3,30.10,NW,326,3.0,10.0,77,0.00,,,0.00,Wunderground v.1.15,2013-10-23 22:42:00,
2013-10-23 17:47:00,40.8,34.5,30.11,NW,317,2.0,10.0,78,0.00,,,0.00,Wunderground v.1.15,2013-10-23 22:47:00,
2013-10-23 17:53:00,40.5,34.5,30.11,NW,314,3.0,10.0,79,0.00,,,0.00,Wunderground v.1.15,2013-10-23 22:53:00,
2013-10-23 17:58:00,40.3,34.6,30.11,NW,318,3.0,10.0,80,0.00,,,0.00,Wunderground v.1.15,2013-10-23 22:58:00,
2013-10-23 18:04:00,40.1,34.7,30.11,NW,318,3.0,10.0,81,0.00,,,0.00,Wunderground v.1.15,2013-10-23 23:04:00,
2013-10-23 18:09:00,40.0,34.9,30.11,NW,318,2.0,10.0,82,0.00,,,0.00,Wunderground v.1.15,2013-10-23 23:09:00,
2013-10-23 18:15:00,39.8,34.8,30.11,NW,310,1.0,10.0,82,0.00,,,0.00,Wunderground v.1.15,2013-10-23 23:15:00,
2013-10-23 18:32:00,39.5,35.4,30.11,NW,319,3.0,10.0,85,0.00,,,0.00,Wunderground v.1.15,2013-10-23 23:32:00,
2013-10-23 18:38:00,39.3,35.5,30.12,NW,315,4.0,10.0,86,0.00,,,0.00,Wunderground v.1.15,2013-10-23 23:38:00,
2013-10-23 18:44:00,39.1,35.3,30.12,NW,313,4.0,10.0,86,0.00,,,0.00,Wunderground v.1.15,2013-10-23 23:44:00,
2013-10-23 18:50:00,38.9,35.4,30.12,NW,315,4.0,10.0,87,0.00,,,0.00,Wunderground v.1.15,2013-10-23 23:50:00,
2013-10-23 18:55:00,38.8,35.3,30.13,NW,315,3.0,10.0,87,0.00,,,0.00,Wunderground v.1.15,2013-10-23 23:55:00,
2013-10-23 19:01:00,38.8,35.6,30.12,NW,315,2.0,10.0,88,0.00,,,0.00,Wunderground v.1.15,2013-10-24 00:01:00,
2013-10-23 19:06:00,38.7,35.5,30.13,NW,315,1.0,10.0,88,0.00,,,0.00,Wunderground v.1.15,2013-10-24 00:06:00,
2013-10-23 19:12:00,38.7,35.5,30.13,NW,315,2.0,10.0,88,0.00,,,0.00,Wunderground v.1.15,2013-10-24 00:12:00,
2013-10-23 19:17:00,38.6,35.4,30.13,NW,315,3.0,10.0,88,0.00,,,0.00,Wunderground v.1.15,2013-10-24 00:17:00,
2013-10-23 19:23:00,38.5,35.5,30.13,NW,315,2.0,10.0,89,0.00,,,0.00,Wunderground v.1.15,2013-10-24 00:23:00,
2013-10-23 19:28:00,38.4,35.7,30.13,NW,315,2.0,10.0,90,0.00,,,0.00,Wunderground v.1.15,2013-10-24 00:28:00,
2013-10-23 19:34:00,38.3,35.6,30.13,NW,315,2.0,10.0,90,0.00,,,0.00,Wunderground v.1.15,2013-10-24 00:34:00,
2013-10-23 19:39:00,38.1,35.4,30.13,NW,315,3.0,10.0,90,0.00,,,0.00,Wunderground v.1.15,2013-10-24 00:39:00,
2013-10-23 19:44:00,38.1,35.4,30.13,NW,315,3.0,10.0,90,0.00,,,0.00,Wunderground v.1.15,2013-10-24 00:44:00,
2013-10-23 19:50:00,38.1,35.7,30.13,NW,315,3.0,10.0,91,0.00,,,0.00,Wunderground v.1.15,2013-10-24 00:50:00,
2013-10-23 19:56:00,38.0,35.6,30.13,NW,315,3.0,10.0,91,0.00,,,0.00,Wunderground v.1.15,2013-10-24 00:56:00,
2013-10-23 20:01:00,38.0,35.6,30.13,NW,315,3.0,10.0,91,0.00,,,0.00,Wunderground v.1.15,2013-10-24 01:01:00,
2013-10-23 20:07:00,38.0,35.6,30.14,NW,315,3.0,10.0,91,0.00,,,0.00,Wunderground v.1.15,2013-10-24 01:07:00,
2013-10-23 20:12:00,38.0,35.6,30.13,NW,315,3.0,10.0,91,0.00,,,0.00,Wunderground v.1.15,2013-10-24 01:12:00,
2013-10-23 20:18:00,37.9,35.5,30.13,NW,315,3.0,10.0,91,0.00,,,0.00,Wunderground v.1.15,2013-10-24 01:18:00,
2013-10-23 20:23:00,37.9,35.5,30.13,NW,315,2.0,10.0,91,0.00,,,0.00,Wunderground v.1.15,2013-10-24 01:23:00,
2013-10-23 20:29:00,37.8,35.4,30.13,NW,315,2.0,10.0,91,0.00,,,0.00,Wunderground v.1.15,2013-10-24 01:29:00,
2013-10-23 20:34:00,37.8,35.7,30.13,NW,315,2.0,10.0,92,0.00,,,0.00,Wunderground v.1.15,2013-10-24 01:34:00,
2013-10-23 20:40:00,37.8,35.7,30.13,NW,315,3.0,3.0,92,0.00,,,0.00,Wunderground v.1.15,2013-10-24 01:40:00,
2013-10-23 20:45:00,37.8,35.7,30.13,NW,315,2.0,10.0,92,0.00,,,0.00,Wunderground v.1.15,2013-10-24 01:45:00,
2013-10-23 20:51:00,37.7,35.6,30.13,NW,315,0.0,10.0,92,0.00,,,0.00,Wunderground v.1.15,2013-10-24 01:51:00,
2013-10-23 20:56:00,37.5,35.4,30.13,NW,315,0.0,10.0,92,0.00,,,0.00,Wunderground v.1.15,2013-10-24 01:56:00,
2013-10-23 21:02:00,37.3,35.2,30.13,NW,315,0.0,10.0,92,0.00,,,0.00,Wunderground v.1.15,2013-10-24 02:02:00,
2013-10-23 21:07:00,37.2,35.1,30.13,NW,315,0.0,10.0,92,0.00,,,0.00,Wunderground v.1.15,2013-10-24 02:07:00,
2013-10-23 21:13:00,37.0,34.9,30.13,NW,315,0.0,10.0,92,0.00,,,0.00,Wunderground v.1.15,2013-10-24 02:13:00,
2013-10-23 21:18:00,36.9,34.8,30.13,NW,315,0.0,10.0,92,0.00,,,0.00,Wunderground v.1.15,2013-10-24 02:18:00,
2013-10-23 21:24:00,36.5,34.4,30.13,NW,315,0.0,10.0,92,0.00,,,0.00,Wunderground v.1.15,2013-10-24 02:24:00,
2013-10-23 21:30:00,36.2,34.1,30.13,NW,315,0.0,10.0,92,0.00,,,0.00,Wunderground v.1.15,2013-10-24 02:30:00,
2013-10-23 21:36:00,36.1,34.3,30.13,NW,315,0.0,10.0,93,0.00,,,0.00,Wunderground v.1.15,2013-10-24 02:36:00,
2013-10-23 21:42:00,36.1,34.3,30.13,NW,315,0.0,10.0,93,0.00,,,0.00,Wunderground v.1.15,2013-10-24 02:42:00,
2013-10-23 21:47:00,36.0,34.2,30.13,NW,315,0.0,10.0,93,0.00,,,0.00,Wunderground v.1.15,2013-10-24 02:47:00,
2013-10-23 21:53:00,36.0,34.2,30.13,NW,315,0.0,10.0,93,0.00,,,0.00,Wunderground v.1.15,2013-10-24 02:53:00,
2013-10-23 21:58:00,35.9,34.1,30.13,NW,315,0.0,10.0,93,0.00,,,0.00,Wunderground v.1.15,2013-10-24 02:58:00,
2013-10-23 22:04:00,36.0,34.4,30.14,NW,315,0.0,10.0,94,0.00,,,0.00,Wunderground v.1.15,2013-10-24 03:04:00,
2013-10-23 22:09:00,36.1,34.5,30.13,NW,315,0.0,10.0,94,0.00,,,0.00,Wunderground v.1.15,2013-10-24 03:09:00,
2013-10-23 22:15:00,36.3,34.7,30.13,NW,315,0.0,10.0,94,0.00,,,0.00,Wunderground v.1.15,2013-10-24 03:15:00,
2013-10-23 22:20:00,36.6,35.0,30.14,NW,315,0.0,10.0,94,0.00,,,0.00,Wunderground v.1.15,2013-10-24 03:20:00,
2013-10-23 22:26:00,36.9,35.3,30.14,NW,315,1.0,10.0,94,0.00,,,0.00,Wunderground v.1.15,2013-10-24 03:26:00,
2013-10-23 22:31:00,37.0,35.4,30.14,NW,315,1.0,10.0,94,0.00,,,0.00,Wunderground v.1.15,2013-10-24 03:31:00,
2013-10-23 22:37:00,37.1,35.5,30.14,NW,315,0.0,10.0,94,0.00,,,0.00,Wunderground v.1.15,2013-10-24 03:37:00,
2013-10-23 22:42:00,37.1,35.5,30.14,NW,315,0.0,10.0,94,0.00,,,0.00,Wunderground v.1.15,2013-10-24 03:42:00,
2013-10-23 22:48:00,37.2,35.6,30.14,NW,315,1.0,10.0,94,0.00,,,0.00,Wunderground v.1.15,2013-10-24 03:48:00,
2013-10-23 22:53:00,37.3,35.7,30.14,NW,315,1.0,10.0,94,0.00,,,0.00,Wunderground v.1.15,2013-10-24 03:53:00,
2013-10-23 22:59:00,37.4,35.8,30.14,NW,315,1.0,10.0,94,0.00,,,0.00,Wunderground v.1.15,2013-10-24 03:59:00,
2013-10-23 23:01:00,37.4,35.8,30.14,NW,315,1.0,10.0,94,0.00,,,0.00,Wunderground v.1.15,2013-10-24 04:01:00,
2013-10-23 23:02:00,37.4,35.8,30.14,NW,315,2.0,10.0,94,0.00,,,0.00,Wunderground v.1.15,2013-10-24 04:02:00,
2013-10-23 23:04:00,37.4,35.8,30.14,NW,315,1.0,10.0,94,0.00,,,0.00,Wunderground v.1.15,2013-10-24 04:04:00,
2013-10-23 23:05:00,37.4,35.8,30.14,NW,315,1.0,10.0,94,0.00,,,0.00,Wunderground v.1.15,2013-10-24 04:05:00,
2013-10-23 23:06:00,37.4,35.8,30.14,NW,315,1.0,10.0,94,0.00,,,0.00,Wunderground v.1.15,2013-10-24 04:06:00,
2013-10-23 23:12:00,37.5,35.9,30.14,NW,315,1.0,10.0,94,0.00,,,0.00,Wunderground v.1.15,2013-10-24 04:12:00,
2013-10-23 23:13:00,37.5,35.9,30.14,NW,315,1.0,10.0,94,0.00,,,0.00,Wunderground v.1.15,2013-10-24 04:13:00,
2013-10-23 23:19:00,37.5,35.9,30.14,NW,315,2.0,10.0,94,0.00,,,0.00,Wunderground v.1.15,2013-10-24 04:19:00,
2013-10-23 23:24:00,37.5,35.9,30.14,NW,315,2.0,10.0,94,0.00,,,0.00,Wunderground v.1.15,2013-10-24 04:24:00,
2013-10-23 23:30:00,37.5,35.9,30.14,NW,315,2.0,2.0,94,0.00,,,0.00,Wunderground v.1.15,2013-10-24 04:30:00,
2013-10-23 23:35:00,37.5,35.9,30.14,NW,315,1.0,10.0,94,0.00,,,0.00,Wunderground v.1.15,2013-10-24 04:35:00,
2013-10-23 23:41:00,37.5,35.9,30.14,NW,315,1.0,10.0,94,0.00,,,0.00,Wunderground v.1.15,2013-10-24 04:41:00,
2013-10-23 23:46:00,37.5,35.9,30.14,NW,315,1.0,10.0,94,0.00,,,0.00,Wunderground v.1.15,2013-10-24 04:46:00,
2013-10-23 23:52:00,37.6,36.0,30.14,NW,315,1.0,10.0,94,0.00,,,0.00,Wunderground v.1.15,2013-10-24 04:52:00,
2013-10-23 23:57:00,37.6,36.0,30.14,NW,315,1.0,10.0,94,0.00,,,0.00,Wunderground v.1.15,2013-10-24 04:57:00,